Time;durP1;ratioP1;P1;durP2;ratioP2;P2;SDS_P1;SDS_P2;PMS_P1;PMS_P2;Temp;Humidity;BMP_temperature;BMP_pressure;BME280_temperature;BME280_humidity;BME280_pressure;Samples;Min_cycle;Max_cycle;Signal;HPM_P1;HPM_P2
2023/12/30 09:13:08;;;;;;;2.85;1.00;;;;;;;;;;2084097;28;20569;-75
2023/12/30 09:14:09;;;;;;;1.65;0.90;;;;;;;;;;2083113;28;20664;-72
2023/12/30 09:15:11;;;;;;;3.97;0.93;;;;;;;;;;2075980;28;20202;-74
2023/12/30 09:16:12;;;;;;;2.85;0.93;;;;;;;;;;2074311;28;20185;-73
2023/12/30 09:17:14;;;;;;;2.15;1.00;;;;;;;;;;2066045;28;20289;-72
2023/12/30 09:18:15;;;;;;;2.60;0.80;;;;;;;;;;2064362;28;20194;-73
2023/12/30 09:19:17;;;;;;;2.40;1.00;;;;;;;;;;2068215;28;20248;-73
2023/12/30 09:20:19;;;;;;;1.65;0.80;;;;;;;;;;2063264;28;20226;-73
2023/12/30 09:21:20;;;;;;;2.25;0.95;;;;;;;;;;2065455;28;20206;-74
2023/12/30 09:22:22;;;;;;;1.60;0.88;;;;;;;;;;2067176;28;20663;-75
2023/12/30 09:23:24;;;;;;;2.97;1.10;;;;;;;;;;2065693;28;20202;-67
2023/12/30 09:24:25;;;;;;;1.98;0.80;;;;;;;;;;2064177;28;20194;-67
2023/12/30 09:25:28;;;;;;;1.27;0.70;;;;;;;;;;2064068;28;20262;-65
2023/12/30 09:26:30;;;;;;;2.03;0.80;;;;;;;;;;2068780;28;20194;-65
2023/12/30 09:27:32;;;;;;;4.10;1.00;;;;;;;;;;2069320;28;20195;-65
2023/12/30 09:28:33;;;;;;;1.48;0.75;;;;;;;;;;2063531;28;20202;-65
2023/12/30 09:29:35;;;;;;;2.42;0.70;;;;;;;;;;2064464;28;20532;-65
2023/12/30 09:30:36;;;;;;;2.58;0.90;;;;;;;;;;2065327;28;20202;-66
2023/12/30 09:31:38;;;;;;;1.50;0.85;;;;;;;;;;2065529;28;20233;-65
2023/12/30 09:32:39;;;;;;;1.75;0.90;;;;;;;;;;2062085;28;20207;-66
2023/12/30 09:33:41;;;;;;;2.92;0.90;;;;;;;;;;2062957;28;20253;-65
2023/12/30 09:34:42;;;;;;;1.75;0.70;;;;;;;;;;2065109;28;20202;-65
2023/12/30 09:35:45;;;;;;;1.52;0.80;;;;;;;;;;2072536;28;20197;-65
2023/12/30 09:36:47;;;;;;;1.50;0.80;;;;;;;;;;2068633;28;20229;-65
2023/12/30 09:37:48;;;;;;;2.45;0.70;;;;;;;;;;2062131;28;20222;-65
2023/12/30 09:38:50;;;;;;;4.57;0.90;;;;;;;;;;2062104;28;20199;-65
2023/12/30 09:39:53;;;;;;;3.03;0.98;;;;;;;;;;2063360;28;20215;-66
2023/12/30 09:40:56;;;;;;;2.40;0.77;;;;;;;;;;2063374;28;20199;-66
2023/12/30 09:41:58;;;;;;;1.70;0.77;;;;;;;;;;2062893;28;20222;-65
2023/12/30 09:43:03;;;;;;;4.55;0.95;;;;;;;;;;2064133;28;20697;-64
2023/12/30 09:44:06;;;;;;;3.30;1.10;;;;;;;;;;2066218;28;20336;-65
2023/12/30 09:45:07;;;;;;;3.47;0.90;;;;;;;;;;2071421;28;20713;-66
2023/12/30 09:46:10;;;;;;;3.10;0.90;;;;;;;;;;2072898;28;20210;-65
2023/12/30 09:47:11;;;;;;;2.50;1.20;;;;;;;;;;2061398;28;20314;-66
2023/12/30 09:48:14;;;;;;;1.67;0.90;;;;;;;;;;2064127;28;20202;-66
2023/12/30 09:49:15;;;;;;;2.30;0.90;;;;;;;;;;2062085;28;20206;-66
2023/12/30 09:50:17;;;;;;;2.58;0.80;;;;;;;;;;2066522;28;20254;-66
2023/12/30 09:51:18;;;;;;;1.92;0.70;;;;;;;;;;2065726;28;20834;-72
2023/12/30 09:52:20;;;;;;;2.00;0.68;;;;;;;;;;2062701;28;20317;-72
2023/12/30 09:53:22;;;;;;;1.45;0.70;;;;;;;;;;2065415;28;20211;-72
2023/12/30 09:54:27;;;;;;;3.20;0.85;;;;;;;;;;2064974;28;20242;-73
2023/12/30 09:55:46;;;;;;;3.70;0.80;;;;;;;;;;2068670;28;20190;-72
2023/12/30 09:56:48;;;;;;;1.52;0.70;;;;;;;;;;2068207;28;20222;-73
2023/12/30 09:57:49;;;;;;;2.33;1.10;;;;;;;;;;2068318;28;20194;-73
2023/12/30 09:58:52;;;;;;;2.88;0.90;;;;;;;;;;2067704;28;20206;-73
2023/12/30 09:59:54;;;;;;;1.58;0.80;;;;;;;;;;2064639;28;20787;-72
2023/12/30 10:00:55;;;;;;;1.90;0.80;;;;;;;;;;2064711;28;20188;-72
2023/12/30 10:02:00;;;;;;;1.95;0.90;;;;;;;;;;2063324;28;20268;-74
2023/12/30 10:03:12;;;;;;;2.08;0.70;;;;;;;;;;2073383;28;20213;-74
2023/12/30 10:04:13;;;;;;;2.47;0.80;;;;;;;;;;2069251;28;20256;-73
2023/12/30 10:05:15;;;;;;;3.45;0.85;;;;;;;;;;2065343;28;20358;-73
2023/12/30 10:06:20;;;;;;;5.10;0.90;;;;;;;;;;2065348;28;20199;-73
2023/12/30 10:07:22;;;;;;;1.50;0.70;;;;;;;;;;2068743;28;20257;-73
2023/12/30 10:08:24;;;;;;;3.33;0.90;;;;;;;;;;2071869;28;20198;-73
2023/12/30 10:09:25;;;;;;;7.03;0.90;;;;;;;;;;2066269;28;20202;-73
2023/12/30 10:10:54;;;;;;;5.28;1.33;;;;;;;;;;2065761;28;20203;-73
2023/12/30 10:11:55;;;;;;;4.13;1.02;;;;;;;;;;2069725;28;20221;-73
2023/12/30 10:12:57;;;;;;;6.40;1.27;;;;;;;;;;2068150;28;20336;-73
2023/12/30 10:13:59;;;;;;;2.38;0.88;;;;;;;;;;2061819;28;20215;-73
2023/12/30 10:15:01;;;;;;;5.05;1.20;;;;;;;;;;2062542;28;20235;-73
2023/12/30 10:16:05;;;;;;;2.45;0.95;;;;;;;;;;2064912;28;20631;-73
2023/12/30 10:17:07;;;;;;;3.10;1.00;;;;;;;;;;2065274;28;20214;-73
2023/12/30 10:18:09;;;;;;;4.70;0.95;;;;;;;;;;2066306;28;20225;-73
2023/12/30 10:19:13;;;;;;;2.97;0.80;;;;;;;;;;2064403;28;20206;-73
2023/12/30 10:20:17;;;;;;;2.63;0.80;;;;;;;;;;2064660;28;20221;-73
2023/12/30 10:21:19;;;;;;;2.38;1.13;;;;;;;;;;2064535;28;20206;-73
2023/12/30 10:22:20;;;;;;;3.45;1.23;;;;;;;;;;2057938;28;20349;-73
2023/12/30 10:23:23;;;;;;;2.00;0.80;;;;;;;;;;2067520;28;20566;-72
2023/12/30 10:24:25;;;;;;;3.78;0.80;;;;;;;;;;2060727;28;20222;-73
2023/12/30 10:25:27;;;;;;;7.03;1.10;;;;;;;;;;2060229;28;20200;-72
2023/12/30 10:26:29;;;;;;;4.78;0.82;;;;;;;;;;2058952;28;20214;-71
2023/12/30 10:27:30;;;;;;;2.08;0.73;;;;;;;;;;2056506;28;20230;-71
2023/12/30 10:28:32;;;;;;;8.00;1.30;;;;;;;;;;2057405;28;20200;-71
2023/12/30 10:29:33;;;;;;;2.85;1.13;;;;;;;;;;2056328;28;20195;-72
2023/12/30 10:31:01;;;;;;;2.85;1.08;;;;;;;;;;2059642;28;20229;-72
2023/12/30 10:32:03;;;;;;;4.90;1.20;;;;;;;;;;2058861;28;20837;-72
2023/12/30 10:33:06;;;;;;;4.18;1.35;;;;;;;;;;2061028;28;20623;-71
2023/12/30 10:34:09;;;;;;;2.55;1.10;;;;;;;;;;2058648;28;20282;-72
2023/12/30 10:35:11;;;;;;;5.65;1.05;;;;;;;;;;2058608;28;20260;-72
2023/12/30 10:36:12;;;;;;;4.80;0.93;;;;;;;;;;2061758;28;20266;-72
2023/12/30 10:37:14;;;;;;;3.05;0.80;;;;;;;;;;2063117;28;20258;-71
2023/12/30 10:38:17;;;;;;;2.72;0.90;;;;;;;;;;2056467;28;20204;-71
2023/12/30 10:39:22;;;;;;;3.00;1.00;;;;;;;;;;2057930;28;20203;-71
2023/12/30 10:40:23;;;;;;;2.67;1.10;;;;;;;;;;2059858;28;20710;-72
2023/12/30 10:41:26;;;;;;;3.83;0.90;;;;;;;;;;2057783;28;20202;-72
2023/12/30 10:42:27;;;;;;;7.18;0.80;;;;;;;;;;2057680;28;20226;-72
2023/12/30 10:43:29;;;;;;;2.90;0.80;;;;;;;;;;2060061;28;20732;-72
2023/12/30 10:44:30;;;;;;;1.88;0.80;;;;;;;;;;2059816;28;20202;-73
2023/12/30 10:45:32;;;;;;;3.65;1.10;;;;;;;;;;2060070;28;20200;-73
2023/12/30 10:46:34;;;;;;;9.80;2.38;;;;;;;;;;2060497;28;20288;-72
2023/12/30 10:47:38;;;;;;;3.90;1.10;;;;;;;;;;2060488;28;20216;-72
2023/12/30 10:48:50;;;;;;;3.60;0.80;;;;;;;;;;2063855;28;20293;-73
2023/12/30 10:49:54;;;;;;;2.33;0.90;;;;;;;;;;2056527;28;20643;-72
2023/12/30 10:51:00;;;;;;;4.72;0.80;;;;;;;;;;2056353;28;20199;-72
2023/12/30 10:52:03;;;;;;;2.22;0.80;;;;;;;;;;2063445;28;20249;-72
2023/12/30 10:53:11;;;;;;;3.38;1.00;;;;;;;;;;2063426;28;20735;-73
2023/12/30 10:54:14;;;;;;;3.47;0.90;;;;;;;;;;2063289;28;20218;-73
2023/12/30 10:55:19;;;;;;;3.38;0.85;;;;;;;;;;2064045;28;20195;-68
2023/12/30 10:56:23;;;;;;;1.90;0.77;;;;;;;;;;2065908;28;20198;-68
2023/12/30 10:57:30;;;;;;;5.68;0.95;;;;;;;;;;2060873;28;20313;-68
2023/12/30 10:58:34;;;;;;;1.80;0.70;;;;;;;;;;2066226;28;20614;-72
2023/12/30 10:59:36;;;;;;;2.88;1.02;;;;;;;;;;2056544;28;20230;-73
2023/12/30 11:00:37;;;;;;;8.07;0.73;;;;;;;;;;2058726;28;20194;-73
2023/12/30 11:01:40;;;;;;;4.63;0.88;;;;;;;;;;2055609;28;20659;-73
2023/12/30 11:02:42;;;;;;;3.35;0.80;;;;;;;;;;2067704;28;20669;-72
2023/12/30 11:03:43;;;;;;;3.95;0.70;;;;;;;;;;2063627;28;20249;-72
2023/12/30 11:04:45;;;;;;;4.63;0.93;;;;;;;;;;2056986;28;20245;-72
2023/12/30 11:06:08;;;;;;;3.30;0.80;;;;;;;;;;2058463;28;20214;-72
2023/12/30 11:07:11;;;;;;;3.20;1.02;;;;;;;;;;2047334;28;20231;-72
2023/12/30 11:08:13;;;;;;;3.33;1.40;;;;;;;;;;2058030;28;20210;-72
2023/12/30 11:09:14;;;;;;;5.38;1.90;;;;;;;;;;2063709;28;20238;-72
2023/12/30 11:10:17;;;;;;;7.00;1.60;;;;;;;;;;2063331;28;20652;-72
2023/12/30 11:11:19;;;;;;;6.18;1.45;;;;;;;;;;2058914;28;20534;-72
2023/12/30 11:12:20;;;;;;;4.32;1.65;;;;;;;;;;2043864;28;20281;-72
2023/12/30 11:13:23;;;;;;;11.00;2.78;;;;;;;;;;2056390;28;20773;-72
2023/12/30 11:14:24;;;;;;;4.03;1.05;;;;;;;;;;2061082;28;20198;-72
2023/12/30 11:15:28;;;;;;;3.50;1.00;;;;;;;;;;2063585;28;20674;-71
2023/12/30 11:16:32;;;;;;;4.93;1.70;;;;;;;;;;2054787;28;20365;-67
2023/12/30 11:17:34;;;;;;;3.45;1.00;;;;;;;;;;2055690;28;20242;-68
2023/12/30 11:18:49;;;;;;;4.60;1.10;;;;;;;;;;2063676;28;20206;-68
2023/12/30 11:19:51;;;;;;;4.13;0.80;;;;;;;;;;2057138;28;20199;-67
2023/12/30 11:20:52;;;;;;;1.58;0.60;;;;;;;;;;2057191;28;20202;-67
2023/12/30 11:21:54;;;;;;;1.92;0.82;;;;;;;;;;2055127;28;20227;-68
2023/12/30 11:22:57;;;;;;;4.40;0.80;;;;;;;;;;2056300;28;20841;-68
2023/12/30 11:24:01;;;;;;;4.82;1.00;;;;;;;;;;2059855;28;20196;-67
2023/12/30 11:25:04;;;;;;;2.53;0.70;;;;;;;;;;2059818;28;20206;-67
2023/12/30 11:26:05;;;;;;;3.05;1.23;;;;;;;;;;2056002;28;20203;-68
2023/12/30 11:27:07;;;;;;;3.78;1.35;;;;;;;;;;2055418;28;20602;-67
2023/12/30 11:28:21;;;;;;;3.05;0.93;;;;;;;;;;2061851;28;20262;-68
2023/12/30 11:29:27;;;;;;;2.08;0.70;;;;;;;;;;2060939;28;20202;-68
2023/12/30 11:30:31;;;;;;;1.88;0.73;;;;;;;;;;2060243;28;20200;-68
2023/12/30 11:31:36;;;;;;;2.38;1.00;;;;;;;;;;2056619;28;20203;-68
2023/12/30 11:32:38;;;;;;;4.25;1.20;;;;;;;;;;2061610;28;20215;-69
2023/12/30 11:33:40;;;;;;;1.60;0.70;;;;;;;;;;2061216;28;20238;-69
2023/12/30 11:34:41;;;;;;;5.97;1.40;;;;;;;;;;2056046;28;20279;-68
2023/12/30 11:35:43;;;;;;;2.25;1.00;;;;;;;;;;2056111;28;20586;-68
2023/12/30 11:36:47;;;;;;;3.17;0.88;;;;;;;;;;2062518;28;20579;-70
2023/12/30 11:37:51;;;;;;;2.40;0.75;;;;;;;;;;2063246;28;20194;-71
2023/12/30 11:38:53;;;;;;;2.75;1.15;;;;;;;;;;2055975;28;20219;-71
2023/12/30 11:39:56;;;;;;;3.33;0.90;;;;;;;;;;2056613;28;20231;-70
2023/12/30 11:40:59;;;;;;;4.80;0.90;;;;;;;;;;2058763;28;20257;-71
2023/12/30 11:42:03;;;;;;;2.90;0.90;;;;;;;;;;2058723;28;20307;-71
2023/12/30 11:43:06;;;;;;;2.33;0.80;;;;;;;;;;2058642;28;20196;-71
2023/12/30 11:44:08;;;;;;;2.30;0.90;;;;;;;;;;2057589;28;20187;-71
2023/12/30 11:45:10;;;;;;;2.00;0.77;;;;;;;;;;2058725;28;20195;-71
2023/12/30 11:46:12;;;;;;;3.88;0.70;;;;;;;;;;2059888;28;20540;-71
2023/12/30 11:47:21;;;;;;;3.47;0.77;;;;;;;;;;2059956;28;20234;-71
2023/12/30 11:48:22;;;;;;;1.50;0.80;;;;;;;;;;2060240;28;20208;-70
2023/12/30 11:49:25;;;;;;;2.63;0.75;;;;;;;;;;2055870;28;20203;-70
2023/12/30 11:50:26;;;;;;;3.38;0.80;;;;;;;;;;2056505;28;20203;-70
2023/12/30 11:51:29;;;;;;;1.65;0.70;;;;;;;;;;2062647;28;20195;-69
2023/12/30 11:52:31;;;;;;;1.40;0.60;;;;;;;;;;2056657;28;20196;-70
2023/12/30 11:53:34;;;;;;;1.40;0.70;;;;;;;;;;2052190;28;20200;-70
2023/12/30 11:54:39;;;;;;;6.80;1.63;;;;;;;;;;2055357;28;20601;-70
2023/12/30 11:55:41;;;;;;;3.95;0.90;;;;;;;;;;2056161;28;20195;-69
2023/12/30 11:56:43;;;;;;;3.15;0.80;;;;;;;;;;2057788;28;20238;-69
2023/12/30 11:57:47;;;;;;;2.53;1.05;;;;;;;;;;2062019;28;20209;-69
2023/12/30 11:58:49;;;;;;;1.60;0.65;;;;;;;;;;2059559;28;20207;-69
2023/12/30 11:59:51;;;;;;;3.97;0.70;;;;;;;;;;2059585;28;20651;-69
2023/12/30 12:00:52;;;;;;;2.67;0.80;;;;;;;;;;2056174;28;20211;-69
2023/12/30 12:02:05;;;;;;;5.53;1.00;;;;;;;;;;2057722;28;20218;-69
2023/12/30 12:03:06;;;;;;;2.80;0.80;;;;;;;;;;2057786;28;20298;-69
2023/12/30 12:04:08;;;;;;;3.00;1.00;;;;;;;;;;2057185;28;20247;-69
2023/12/30 12:05:10;;;;;;;2.05;0.80;;;;;;;;;;2060389;28;20287;-69
2023/12/30 12:06:11;;;;;;;2.45;0.98;;;;;;;;;;2055938;28;20200;-69
2023/12/30 12:07:13;;;;;;;7.80;1.15;;;;;;;;;;2055680;28;20235;-70
2023/12/30 12:08:14;;;;;;;6.25;1.45;;;;;;;;;;2057058;28;20223;-70
2023/12/30 12:09:16;;;;;;;4.18;1.35;;;;;;;;;;2061802;28;20360;-69
2023/12/30 12:10:18;;;;;;;6.68;1.63;;;;;;;;;;2062375;28;20287;-69
2023/12/30 12:11:19;;;;;;;4.78;1.60;;;;;;;;;;2058816;28;20191;-70
2023/12/30 12:12:21;;;;;;;2.53;1.13;;;;;;;;;;2054659;28;20247;-69
2023/12/30 12:13:29;;;;;;;3.92;1.20;;;;;;;;;;2057756;28;20207;-69
2023/12/30 12:14:31;;;;;;;2.47;0.80;;;;;;;;;;2058073;28;20227;-67
2023/12/30 12:15:33;;;;;;;4.05;0.80;;;;;;;;;;2058680;28;20191;-67
2023/12/30 12:16:34;;;;;;;1.70;0.90;;;;;;;;;;2058115;28;20199;-67
2023/12/30 12:17:36;;;;;;;2.72;1.00;;;;;;;;;;2059077;28;20211;-66
2023/12/30 12:18:39;;;;;;;2.03;0.90;;;;;;;;;;2059155;28;20635;-67
2023/12/30 12:19:44;;;;;;;4.10;1.20;;;;;;;;;;2060885;28;20259;-68
2023/12/30 12:20:46;;;;;;;1.60;0.75;;;;;;;;;;2060622;28;20195;-67
2023/12/30 12:21:52;;;;;;;2.55;0.90;;;;;;;;;;2061740;28;20384;-66
2023/12/30 12:22:59;;;;;;;2.67;0.80;;;;;;;;;;2060302;28;20674;-65
2023/12/30 12:24:01;;;;;;;4.60;0.82;;;;;;;;;;2060578;28;20683;-66
2023/12/30 12:25:03;;;;;;;2.33;0.70;;;;;;;;;;2060518;28;20262;-66
2023/12/30 12:26:06;;;;;;;3.28;1.00;;;;;;;;;;2059298;28;20199;-66
2023/12/30 12:27:08;;;;;;;3.70;1.20;;;;;;;;;;2057048;28;20216;-66
2023/12/30 12:28:11;;;;;;;8.55;1.00;;;;;;;;;;2062938;28;20199;-66
2023/12/30 12:29:12;;;;;;;5.20;0.80;;;;;;;;;;2061963;28;20727;-67
2023/12/30 12:30:15;;;;;;;3.20;0.95;;;;;;;;;;2059163;28;20199;-67
2023/12/30 12:31:17;;;;;;;1.80;0.80;;;;;;;;;;2058011;28;20199;-68
2023/12/30 12:32:20;;;;;;;3.03;0.95;;;;;;;;;;2056929;28;20222;-66
2023/12/30 12:33:21;;;;;;;2.75;1.00;;;;;;;;;;2059404;28;20230;-66
2023/12/30 12:34:24;;;;;;;2.65;0.93;;;;;;;;;;2062511;28;20218;-66
2023/12/30 12:35:26;;;;;;;6.18;0.90;;;;;;;;;;2061586;28;20211;-66
2023/12/30 12:36:28;;;;;;;5.03;1.38;;;;;;;;;;2060062;28;20650;-66
2023/12/30 12:37:29;;;;;;;3.17;0.90;;;;;;;;;;2065510;28;20919;-67
2023/12/30 12:38:31;;;;;;;2.58;0.90;;;;;;;;;;2059049;28;20191;-66
2023/12/30 12:39:32;;;;;;;3.13;1.00;;;;;;;;;;2057598;28;20203;-66
2023/12/30 12:40:34;;;;;;;4.88;1.10;;;;;;;;;;2057871;28;20250;-66
2023/12/30 12:41:35;;;;;;;4.03;1.23;;;;;;;;;;2055181;28;20690;-67
2023/12/30 12:42:37;;;;;;;2.65;1.02;;;;;;;;;;2059766;28;20199;-70
2023/12/30 12:43:38;;;;;;;2.70;0.80;;;;;;;;;;2054071;28;20202;-72
2023/12/30 12:44:40;;;;;;;2.30;1.20;;;;;;;;;;2050003;28;20789;-70
2023/12/30 12:45:41;;;;;;;2.92;1.02;;;;;;;;;;2056701;28;20198;-70
2023/12/30 12:46:43;;;;;;;1.90;0.82;;;;;;;;;;2058619;28;20198;-70
2023/12/30 12:47:45;;;;;;;3.05;0.75;;;;;;;;;;2058833;28;20200;-70
2023/12/30 12:48:46;;;;;;;2.60;0.88;;;;;;;;;;2058695;28;20210;-70
2023/12/30 12:49:48;;;;;;;4.53;1.15;;;;;;;;;;2058651;28;20250;-70
2023/12/30 12:50:49;;;;;;;2.50;1.50;;;;;;;;;;2060195;28;20740;-70
2023/12/30 12:51:51;;;;;;;2.60;0.77;;;;;;;;;;2057251;28;20580;-70
2023/12/30 12:52:53;;;;;;;3.17;0.60;;;;;;;;;;2059873;28;20253;-71
2023/12/30 12:53:54;;;;;;;1.63;0.70;;;;;;;;;;2060635;28;20290;-70
2023/12/30 12:54:56;;;;;;;2.13;0.68;;;;;;;;;;2060907;28;20254;-70
2023/12/30 12:55:57;;;;;;;5.65;1.80;;;;;;;;;;2062700;28;20617;-71
2023/12/30 12:56:59;;;;;;;2.22;0.70;;;;;;;;;;2062234;28;20683;-69
2023/12/30 12:58:00;;;;;;;3.85;0.93;;;;;;;;;;2058390;28;20199;-69
2023/12/30 12:59:02;;;;;;;4.22;1.40;;;;;;;;;;2062388;28;20261;-69
2023/12/30 13:00:08;;;;;;;3.45;1.00;;;;;;;;;;2061708;28;20305;-70
2023/12/30 13:01:11;;;;;;;2.58;1.10;;;;;;;;;;2062272;28;20191;-71
2023/12/30 13:02:17;;;;;;;7.05;1.77;;;;;;;;;;2062484;28;20214;-71
2023/12/30 13:03:22;;;;;;;3.35;1.38;;;;;;;;;;2063278;28;20195;-70
2023/12/30 13:04:24;;;;;;;4.60;1.35;;;;;;;;;;2059534;28;20198;-70
2023/12/30 13:05:26;;;;;;;2.60;0.80;;;;;;;;;;2058488;28;20861;-71
2023/12/30 13:06:27;;;;;;;2.15;0.70;;;;;;;;;;2062913;28;20210;-70
2023/12/30 13:07:29;;;;;;;5.97;1.05;;;;;;;;;;2061602;28;20811;-70
2023/12/30 13:08:31;;;;;;;3.40;0.80;;;;;;;;;;2060043;28;20191;-70
2023/12/30 13:09:42;;;;;;;3.88;0.80;;;;;;;;;;2063810;28;20207;-70
2023/12/30 13:10:48;;;;;;;1.35;0.60;;;;;;;;;;2055439;28;20208;-70
2023/12/30 13:11:53;;;;;;;2.55;0.70;;;;;;;;;;2058970;28;20225;-72
2023/12/30 13:12:57;;;;;;;5.50;0.82;;;;;;;;;;2063149;28;20272;-70
2023/12/30 13:13:59;;;;;;;4.15;0.80;;;;;;;;;;2062387;28;20198;-70
2023/12/30 13:15:01;;;;;;;2.67;0.80;;;;;;;;;;2054993;28;20215;-70
2023/12/30 13:16:02;;;;;;;1.50;0.68;;;;;;;;;;2056015;28;20195;-70
2023/12/30 13:17:11;;;;;;;3.85;0.70;;;;;;;;;;2056807;28;20321;-70
2023/12/30 13:18:17;;;;;;;1.85;0.80;;;;;;;;;;2058437;28;20655;-70
2023/12/30 13:19:19;;;;;;;6.97;1.13;;;;;;;;;;2058632;28;20203;-70
2023/12/30 13:20:21;;;;;;;2.10;0.70;;;;;;;;;;2056959;28;20682;-70
2023/12/30 13:21:23;;;;;;;2.65;0.90;;;;;;;;;;2061415;28;20257;-70
2023/12/30 13:22:25;;;;;;;2.45;1.05;;;;;;;;;;2060765;28;20241;-70
2023/12/30 13:23:26;;;;;;;3.38;0.80;;;;;;;;;;2054960;28;20238;-70
2023/12/30 13:24:29;;;;;;;2.60;0.80;;;;;;;;;;2056260;28;20211;-70
2023/12/30 13:25:30;;;;;;;1.60;0.80;;;;;;;;;;2058319;28;20206;-70
2023/12/30 13:26:32;;;;;;;2.60;0.80;;;;;;;;;;2056679;28;20206;-69
2023/12/30 13:27:35;;;;;;;3.10;1.48;;;;;;;;;;2058240;28;20281;-70
2023/12/30 13:28:37;;;;;;;5.47;2.40;;;;;;;;;;2058679;28;20636;-70
2023/12/30 13:29:38;;;;;;;5.95;2.10;;;;;;;;;;2058905;28;20196;-70
2023/12/30 13:30:40;;;;;;;1.67;0.80;;;;;;;;;;2057576;28;20206;-70
2023/12/30 13:31:44;;;;;;;2.45;0.90;;;;;;;;;;2058567;28;20191;-70
2023/12/30 13:32:46;;;;;;;5.22;0.80;;;;;;;;;;2063632;28;20198;-70
2023/12/30 13:33:49;;;;;;;2.30;0.88;;;;;;;;;;2062605;28;20205;-69
2023/12/30 13:34:54;;;;;;;2.10;0.93;;;;;;;;;;2062920;28;20694;-71
2023/12/30 13:35:56;;;;;;;1.95;1.02;;;;;;;;;;2056018;28;20195;-70
2023/12/30 13:37:04;;;;;;;1.55;0.80;;;;;;;;;;2055934;28;20223;-70
2023/12/30 13:38:14;;;;;;;2.33;1.08;;;;;;;;;;2055831;28;20223;-70
2023/12/30 13:39:17;;;;;;;1.80;1.00;;;;;;;;;;2058650;28;20214;-70
2023/12/30 13:40:19;;;;;;;2.78;1.30;;;;;;;;;;2057288;28;20214;-70
2023/12/30 13:41:24;;;;;;;3.95;1.90;;;;;;;;;;2055565;28;20345;-70
2023/12/30 13:42:26;;;;;;;3.15;1.42;;;;;;;;;;2058142;28;20778;-70
2023/12/30 13:43:28;;;;;;;2.70;1.20;;;;;;;;;;2060251;28;20594;-70
2023/12/30 13:44:35;;;;;;;5.00;1.48;;;;;;;;;;2062654;28;20282;-71
2023/12/30 13:45:41;;;;;;;2.85;0.80;;;;;;;;;;2062370;28;20199;-70
2023/12/30 13:50:34;;;;;;;3.58;1.73;;;;;;;;;;2057377;28;20206;-66
2023/12/30 13:51:36;;;;;;;5.85;1.90;;;;;;;;;;2056243;28;20206;-66
2023/12/30 13:52:37;;;;;;;4.82;1.70;;;;;;;;;;2057215;28;20394;-66
2023/12/30 13:53:39;;;;;;;4.22;1.50;;;;;;;;;;2062470;28;20234;-67
2023/12/30 13:54:44;;;;;;;7.18;2.25;;;;;;;;;;2062233;28;20215;-66
2023/12/30 13:55:46;;;;;;;10.85;3.78;;;;;;;;;;2058631;28;20648;-68
2023/12/30 13:56:52;;;;;;;40.55;22.45;;;;;;;;;;2058957;28;20264;-66
2023/12/30 13:57:54;;;;;;;99.50;55.20;;;;;;;;;;2061427;28;20213;-65
2023/12/30 13:58:57;;;;;;;10.32;4.50;;;;;;;;;;2055157;28;20792;-64
2023/12/30 13:59:59;;;;;;;11.10;4.43;;;;;;;;;;2061017;28;20331;-64
2023/12/30 14:01:00;;;;;;;3.53;1.50;;;;;;;;;;2062631;28;20198;-64
2023/12/30 14:02:02;;;;;;;5.28;2.17;;;;;;;;;;2056476;28;20226;-64
2023/12/30 14:03:05;;;;;;;7.30;2.50;;;;;;;;;;2062101;28;20235;-65
2023/12/30 14:04:08;;;;;;;6.70;2.58;;;;;;;;;;2062040;28;20195;-64
2023/12/30 14:05:18;;;;;;;2.90;1.00;;;;;;;;;;2059245;28;20567;-64
2023/12/30 14:06:28;;;;;;;5.00;1.20;;;;;;;;;;2060311;28;20306;-64
2023/12/30 14:07:30;;;;;;;3.60;1.70;;;;;;;;;;2059792;28;20231;-75
2023/12/30 14:08:42;;;;;;;2.00;1.00;;;;;;;;;;2060705;28;20195;-73
2023/12/30 14:09:54;;;;;;;1.40;0.90;;;;;;;;;;2060173;28;20227;-74
2023/12/30 14:10:55;;;;;;;2.30;0.82;;;;;;;;;;2059996;28;20608;-74
2023/12/30 14:12:00;;;;;;;2.90;1.10;;;;;;;;;;2059208;28;20219;-73
2023/12/30 14:13:02;;;;;;;5.50;0.80;;;;;;;;;;2058206;28;20317;-74
2023/12/30 14:14:09;;;;;;;6.38;1.00;;;;;;;;;;2060803;28;20265;-74
2023/12/30 14:15:13;;;;;;;1.20;0.60;;;;;;;;;;2060874;28;20227;-74
2023/12/30 14:16:14;;;;;;;2.85;0.70;;;;;;;;;;2059918;28;20268;-73
2023/12/30 14:17:16;;;;;;;2.05;0.80;;;;;;;;;;2061064;28;20759;-74
2023/12/30 14:18:18;;;;;;;1.70;0.98;;;;;;;;;;2066258;28;20586;-75
